Time;durP1;ratioP1;P1;durP2;ratioP2;P2;SDS_P1;SDS_P2;PMS_P1;PMS_P2;Temp;Humidity;BMP_temperature;BMP_pressure;BME280_temperature;BME280_humidity;BME280_pressure;Samples;Min_cycle;Max_cycle;Signal;HPM_P1;HPM_P2
2022/05/17 00:01:06;;;;;;;6.45;3.40;;;18.80;62.80;;;;;;5044645;28;20071;-66
2022/05/17 00:03:32;;;;;;;8.70;3.03;;;18.70;63.00;;;;;;5037698;28;20037;-66
2022/05/17 00:05:57;;;;;;;8.75;3.35;;;18.80;63.30;;;;;;5045179;28;20036;-66
2022/05/17 00:08:23;;;;;;;8.30;2.90;;;18.80;63.20;;;;;;5040765;28;20025;-66
2022/05/17 00:10:49;;;;;;;10.70;3.10;;;18.70;62.90;;;;;;5040313;28;20385;-66
2022/05/17 00:13:15;;;;;;;7.30;3.10;;;18.70;62.80;;;;;;5042395;28;20016;-66
2022/05/17 00:15:46;;;;;;;8.32;3.42;;;18.70;63.10;;;;;;5043695;28;20038;-66
2022/05/17 00:18:12;;;;;;;5.55;3.30;;;18.60;63.30;;;;;;5043910;28;20040;-66
2022/05/17 00:20:41;;;;;;;6.75;3.40;;;18.50;63.90;;;;;;5033198;28;20084;-66
2022/05/17 00:23:07;;;;;;;6.72;3.17;;;18.40;64.40;;;;;;5045646;28;20476;-66
2022/05/17 00:25:35;;;;;;;8.02;3.35;;;18.40;64.80;;;;;;5045764;28;20048;-66
2022/05/17 00:28:01;;;;;;;8.75;3.15;;;18.30;64.90;;;;;;5042887;28;20048;-66
2022/05/17 00:30:27;;;;;;;7.38;3.00;;;18.30;65.20;;;;;;5047026;28;20475;-66
2022/05/17 00:32:53;;;;;;;7.35;3.20;;;18.30;65.10;;;;;;5044714;28;20025;-66
2022/05/17 00:35:18;;;;;;;5.43;2.75;;;18.30;64.80;;;;;;5044623;28;20582;-66
2022/05/17 00:37:44;;;;;;;8.40;3.20;;;18.30;64.40;;;;;;5038187;28;20044;-66
2022/05/17 00:40:11;;;;;;;9.00;3.28;;;18.30;64.10;;;;;;5035004;28;20485;-66
2022/05/17 00:42:37;;;;;;;7.95;3.13;;;18.20;63.80;;;;;;5034478;28;20054;-66
2022/05/17 00:45:04;;;;;;;9.85;3.38;;;18.20;63.90;;;;;;5033336;28;20036;-66
2022/05/17 00:47:39;;;;;;;7.32;3.20;;;18.20;64.10;;;;;;5038171;28;20464;-66
2022/05/17 00:50:07;;;;;;;7.93;3.40;;;18.20;64.20;;;;;;5033318;28;20025;-66
2022/05/17 00:52:50;;;;;;;11.27;3.80;;;18.20;64.40;;;;;;5039586;28;20112;-66
2022/05/17 00:55:31;;;;;;;8.20;3.97;;;18.20;64.80;;;;;;5043045;28;20041;-66
2022/05/17 00:58:03;;;;;;;7.72;3.10;;;18.20;65.00;;;;;;5036557;28;20083;-66
2022/05/17 01:00:32;;;;;;;6.57;3.20;;;18.10;65.90;;;;;;5035374;28;20052;-66
2022/05/17 01:03:02;;;;;;;8.93;3.30;;;18.10;64.70;;;;;;5041462;28;20029;-66
2022/05/17 01:05:34;;;;;;;8.02;3.15;;;18.00;64.50;;;;;;5041632;28;20280;-66
2022/05/17 01:08:01;;;;;;;8.68;3.65;;;18.00;64.60;;;;;;5046290;28;20136;-66
2022/05/17 01:10:30;;;;;;;6.63;3.45;;;18.00;65.20;;;;;;5038158;28;20064;-66
2022/05/17 01:15:42;;;;;;;7.43;3.20;;;17.90;65.30;;;;;;5031794;28;20527;-66
2022/05/17 01:18:08;;;;;;;7.18;3.75;;;17.90;65.40;;;;;;5040612;28;20025;-66
2022/05/17 01:20:34;;;;;;;6.35;3.15;;;17.80;65.70;;;;;;5045435;28;20469;-66
2022/05/17 01:23:00;;;;;;;7.68;3.35;;;17.80;66.00;;;;;;5029879;28;20033;-66
2022/05/17 01:25:28;;;;;;;6.28;3.40;;;17.80;65.90;;;;;;5041532;28;20401;-66
2022/05/17 01:28:07;;;;;;;8.68;3.42;;;17.70;65.70;;;;;;5039507;28;20037;-66
2022/05/17 01:30:34;;;;;;;6.43;3.50;;;17.70;65.90;;;;;;5035364;28;20029;-66
2022/05/17 01:32:59;;;;;;;8.52;3.40;;;17.70;66.00;;;;;;5041324;28;20080;-66
2022/05/17 01:35:25;;;;;;;10.93;3.70;;;17.60;66.20;;;;;;5042285;28;20041;-66
2022/05/17 01:37:54;;;;;;;8.85;3.50;;;17.60;67.40;;;;;;5047009;28;20025;-66
2022/05/17 01:40:21;;;;;;;7.50;3.80;;;17.60;66.40;;;;;;5038389;28;20029;-66
2022/05/17 01:42:47;;;;;;;5.53;3.20;;;17.60;66.20;;;;;;5042784;28;20567;-66
2022/05/17 01:45:13;;;;;;;8.18;3.50;;;17.60;66.10;;;;;;5037894;28;20104;-66
2022/05/17 01:47:38;;;;;;;8.93;3.50;;;17.60;65.90;;;;;;5042525;28;20041;-66
2022/05/17 01:50:05;;;;;;;7.32;3.35;;;17.60;65.90;;;;;;5046610;28;20544;-66
2022/05/17 01:52:30;;;;;;;7.10;3.42;;;17.60;66.10;;;;;;5045370;28;20083;-66
2022/05/17 01:54:56;;;;;;;8.20;3.15;;;17.60;66.20;;;;;;5037805;28;20038;-66
2022/05/17 01:57:22;;;;;;;9.18;3.58;;;17.60;65.80;;;;;;5042628;28;20028;-66
2022/05/17 01:59:48;;;;;;;6.25;3.20;;;17.50;65.60;;;;;;5043674;28;20124;-66
2022/05/17 02:02:13;;;;;;;9.15;3.90;;;17.50;65.80;;;;;;5042878;28;20420;-66
2022/05/17 02:04:39;;;;;;;7.38;3.80;;;17.40;66.00;;;;;;5036275;28;20032;-66
2022/05/17 02:07:05;;;;;;;6.85;3.22;;;17.40;66.10;;;;;;5046931;28;20040;-66
2022/05/17 02:09:30;;;;;;;5.82;3.50;;;17.30;66.10;;;;;;5040829;28;20080;-66
2022/05/17 02:11:56;;;;;;;8.75;3.20;;;17.30;66.00;;;;;;5037307;28;20091;-66
2022/05/17 02:14:22;;;;;;;6.50;3.38;;;17.30;66.10;;;;;;5037952;28;20028;-66
2022/05/17 02:16:48;;;;;;;7.18;3.60;;;17.20;65.90;;;;;;5035711;28;20044;-66
2022/05/17 02:19:18;;;;;;;9.23;3.45;;;17.20;65.80;;;;;;5038945;28;20033;-66
2022/05/17 02:21:43;;;;;;;9.63;4.10;;;17.20;66.10;;;;;;5040859;28;20522;-66
2022/05/17 02:24:09;;;;;;;9.75;3.83;;;17.30;66.30;;;;;;5041304;28;20029;-66
2022/05/17 02:26:34;;;;;;;5.68;3.45;;;17.30;66.40;;;;;;5041053;28;20096;-66
2022/05/17 02:29:00;;;;;;;8.00;3.75;;;17.30;66.50;;;;;;5041003;28;20116;-66
2022/05/17 02:31:26;;;;;;;10.80;4.20;;;17.30;66.60;;;;;;5041803;28;20591;-66
2022/05/17 02:33:52;;;;;;;9.43;3.75;;;17.20;66.60;;;;;;5041179;28;20056;-66
2022/05/17 02:36:17;;;;;;;8.20;3.70;;;17.10;66.70;;;;;;5036057;28;20043;-66
2022/05/17 02:38:43;;;;;;;6.85;3.90;;;17.10;66.80;;;;;;5040934;28;20029;-66
2022/05/17 02:41:10;;;;;;;9.65;3.53;;;17.10;66.90;;;;;;5041169;28;20140;-66
2022/05/17 02:43:36;;;;;;;8.60;4.22;;;17.10;67.20;;;;;;5043017;28;20029;-66
2022/05/17 02:46:02;;;;;;;9.93;3.88;;;17.20;67.50;;;;;;5041566;28;20080;-66
2022/05/17 02:48:28;;;;;;;7.07;3.78;;;17.20;67.70;;;;;;5045359;28;20112;-66
2022/05/17 02:50:53;;;;;;;9.27;4.10;;;17.20;67.90;;;;;;5049335;28;20039;-66
2022/05/17 02:53:19;;;;;;;9.77;3.95;;;17.30;68.10;;;;;;5033354;28;20107;-66
2022/05/17 02:55:44;;;;;;;7.32;3.60;;;17.30;68.20;;;;;;5064494;28;20075;-66
2022/05/17 02:58:10;;;;;;;7.50;4.00;;;17.30;68.20;;;;;;5057774;28;20040;-66
2022/05/17 03:00:36;;;;;;;8.52;3.80;;;17.30;67.90;;;;;;5056490;28;20469;-66
2022/05/17 03:03:02;;;;;;;7.65;3.85;;;17.30;67.90;;;;;;5059844;28;20028;-66
2022/05/17 03:05:27;;;;;;;7.05;3.95;;;17.40;67.90;;;;;;5061919;28;20764;-66
2022/05/17 03:07:53;;;;;;;8.40;3.88;;;17.30;68.10;;;;;;5064497;28;20291;-66
2022/05/17 03:10:19;;;;;;;9.43;4.13;;;17.30;68.20;;;;;;5059958;28;20514;-66
2022/05/17 03:12:45;;;;;;;9.15;4.40;;;17.30;68.30;;;;;;5052902;28;20103;-67
2022/05/17 03:15:17;;;;;;;9.50;5.00;;;17.20;68.40;;;;;;5059866;28;20056;-66
2022/05/17 03:17:43;;;;;;;11.35;4.80;;;17.20;69.00;;;;;;5059331;28;20029;-66
2022/05/17 03:20:10;;;;;;;10.65;4.57;;;17.20;69.50;;;;;;5062297;28;20025;-66
2022/05/17 03:22:36;;;;;;;10.57;4.45;;;17.20;69.80;;;;;;5060626;28;20033;-66
2022/05/17 03:25:03;;;;;;;9.30;4.40;;;17.10;69.70;;;;;;5050321;28;20175;-67
2022/05/17 03:27:29;;;;;;;9.98;3.95;;;17.10;69.90;;;;;;5048317;28;20040;-67
2022/05/17 03:29:55;;;;;;;8.23;3.63;;;17.10;69.80;;;;;;5044322;28;20044;-67
2022/05/17 03:32:21;;;;;;;10.63;3.97;;;17.10;69.40;;;;;;5045578;28;20017;-66
2022/05/17 03:34:47;;;;;;;9.23;4.05;;;17.10;69.20;;;;;;5038696;28;20033;-67
2022/05/17 03:37:13;;;;;;;11.73;4.30;;;17.10;69.10;;;;;;5043638;28;20029;-67
2022/05/17 03:39:38;;;;;;;8.98;4.20;;;17.10;69.20;;;;;;5041536;28;20033;-67
2022/05/17 03:42:08;;;;;;;11.15;3.92;;;17.10;69.40;;;;;;5040783;28;20045;-67
2022/05/17 03:44:33;;;;;;;10.13;4.10;;;17.10;69.20;;;;;;5034200;28;20488;-67
2022/05/17 03:46:59;;;;;;;7.60;4.30;;;17.00;69.10;;;;;;5040764;28;20074;-67
2022/05/17 03:49:25;;;;;;;10.98;4.10;;;17.00;69.10;;;;;;5039081;28;20063;-67
2022/05/17 03:51:51;;;;;;;10.23;4.20;;;16.90;69.10;;;;;;5045778;28;20392;-67
2022/05/17 03:54:19;;;;;;;9.10;4.63;;;16.90;69.30;;;;;;5047398;28;20029;-67
2022/05/17 03:56:46;;;;;;;8.75;4.53;;;16.80;69.80;;;;;;5041789;28;20527;-67
2022/05/17 03:59:12;;;;;;;32.85;5.10;;;16.80;69.70;;;;;;5040638;28;20017;-66
2022/05/17 04:01:38;;;;;;;28.38;4.95;;;16.70;69.60;;;;;;5039975;28;20036;-67
2022/05/17 04:04:03;;;;;;;16.85;4.68;;;16.60;69.70;;;;;;5045488;28;20036;-66
2022/05/17 04:06:29;;;;;;;12.10;4.80;;;16.60;70.00;;;;;;5040437;28;20025;-66
2022/05/17 04:08:55;;;;;;;9.02;4.57;;;16.60;70.30;;;;;;5040740;28;20029;-66
2022/05/17 04:11:21;;;;;;;7.10;4.53;;;16.60;70.70;;;;;;5041053;28;20409;-66
2022/05/17 04:13:47;;;;;;;11.57;4.57;;;16.60;70.90;;;;;;5041090;28;20044;-66
2022/05/17 04:16:19;;;;;;;11.48;4.85;;;16.50;70.90;;;;;;5044913;28;20033;-66
2022/05/17 04:18:46;;;;;;;8.95;4.47;;;16.60;70.70;;;;;;5037752;28;20030;-66
2022/05/17 04:21:19;;;;;;;16.73;4.45;;;16.60;70.40;;;;;;5044473;28;20043;-66
2022/05/17 04:23:44;;;;;;;10.80;4.50;;;16.60;70.10;;;;;;5046104;28;20466;-66
2022/05/17 04:26:12;;;;;;;10.20;4.97;;;16.60;69.90;;;;;;5045933;28;20112;-67
2022/05/17 04:28:38;;;;;;;11.02;5.13;;;16.60;70.10;;;;;;5044785;28;20033;-66
2022/05/17 04:31:03;;;;;;;11.23;5.22;;;16.60;70.20;;;;;;5041724;28;20413;-67
2022/05/17 04:33:29;;;;;;;12.95;5.20;;;16.60;70.90;;;;;;5043121;28;20419;-67
2022/05/17 04:35:55;;;;;;;12.50;5.43;;;16.50;71.00;;;;;;5037391;28;20059;-67
2022/05/17 04:38:21;;;;;;;12.77;6.15;;;16.50;71.10;;;;;;5046542;28;20036;-67
2022/05/17 04:40:48;;;;;;;12.32;5.65;;;16.50;71.60;;;;;;5038424;28;20092;-67
2022/05/17 04:43:14;;;;;;;12.13;5.57;;;16.50;72.30;;;;;;5033949;28;20065;-66
2022/05/17 04:45:41;;;;;;;10.68;5.18;;;16.50;72.20;;;;;;5046666;28;20060;-66
2022/05/17 04:48:07;;;;;;;16.13;6.57;;;16.50;72.00;;;;;;5049534;28;20071;-67
2022/05/17 04:50:34;;;;;;;12.63;6.22;;;16.50;72.50;;;;;;5037190;28;20118;-67
2022/05/17 04:53:00;;;;;;;16.45;6.25;;;16.50;73.80;;;;;;5032520;28;20477;-67
2022/05/17 04:55:25;;;;;;;10.38;6.15;;;16.50;74.50;;;;;;5039853;28;20063;-67
2022/05/17 04:57:51;;;;;;;23.58;6.20;;;16.50;74.50;;;;;;5041951;28;20085;-67
2022/05/17 05:00:21;;;;;;;17.73;6.03;;;16.50;74.80;;;;;;5045981;28;20025;-67
2022/05/17 05:02:47;;;;;;;16.83;5.60;;;16.50;74.70;;;;;;5033011;28;20136;-66
2022/05/17 05:05:13;;;;;;;12.20;6.50;;;16.60;74.90;;;;;;5044181;28;20124;-66
2022/05/17 05:07:39;;;;;;;14.55;6.95;;;16.60;75.20;;;;;;5043802;28;20029;-67
2022/05/17 05:10:05;;;;;;;11.82;6.25;;;16.60;76.10;;;;;;5037116;28;20044;-68
2022/05/17 05:12:31;;;;;;;18.15;6.50;;;16.70;76.20;;;;;;5036449;28;20017;-68
2022/05/17 05:14:57;;;;;;;16.45;6.45;;;16.80;76.20;;;;;;5042828;28;20087;-68
2022/05/17 05:17:23;;;;;;;13.82;6.75;;;16.90;76.20;;;;;;5040848;28;20548;-68
2022/05/17 05:19:49;;;;;;;14.77;6.78;;;16.90;76.60;;;;;;5042791;28;20025;-69
2022/05/17 05:22:14;;;;;;;14.32;6.72;;;16.90;78.40;;;;;;5038866;28;20033;-68
2022/05/17 05:24:40;;;;;;;15.07;7.00;;;17.00;79.00;;;;;;5037127;28;20043;-68
2022/05/17 05:27:06;;;;;;;16.85;7.30;;;17.00;80.40;;;;;;5037789;28;20024;-69
2022/05/17 05:29:33;;;;;;;16.05;7.82;;;17.00;81.60;;;;;;5034580;28;20025;-67
2022/05/17 05:31:59;;;;;;;14.02;7.60;;;17.00;82.70;;;;;;5046635;28;20400;-68
2022/05/17 05:34:27;;;;;;;18.70;7.63;;;17.10;82.60;;;;;;5036281;28;20037;-69
2022/05/17 05:36:54;;;;;;;14.20;6.93;;;17.10;82.80;;;;;;5039969;28;20037;-69
2022/05/17 05:39:21;;;;;;;15.82;7.80;;;17.20;82.60;;;;;;5033815;28;20029;-68
2022/05/17 05:41:48;;;;;;;15.23;6.80;;;17.30;82.10;;;;;;5031366;28;20531;-69
2022/05/17 05:44:14;;;;;;;19.38;7.90;;;17.30;81.90;;;;;;5034822;28;20044;-68
2022/05/17 05:46:39;;;;;;;17.17;7.45;;;17.50;81.70;;;;;;5039569;28;20021;-68
2022/05/17 05:49:05;;;;;;;20.88;7.10;;;17.50;81.50;;;;;;5034459;28;20025;-69
2022/05/17 05:51:31;;;;;;;18.38;7.45;;;17.60;81.10;;;;;;5035028;28;20029;-69
2022/05/17 05:53:57;;;;;;;20.35;7.80;;;17.70;80.80;;;;;;5043978;28;20021;-68
2022/05/17 05:56:23;;;;;;;19.27;6.68;;;17.80;80.10;;;;;;5052988;28;20072;-69
2022/05/17 05:58:48;;;;;;;19.15;6.53;;;18.00;79.60;;;;;;5040878;28;20104;-68
2022/05/17 06:01:14;;;;;;;25.33;6.78;;;18.10;79.00;;;;;;5035788;28;20112;-68
2022/05/17 06:03:40;;;;;;;26.45;6.95;;;18.30;78.30;;;;;;5034783;28;20103;-69
2022/05/17 06:06:10;;;;;;;17.23;6.32;;;18.40;77.40;;;;;;5043697;28;20112;-68
2022/05/17 06:08:37;;;;;;;16.40;6.63;;;18.60;76.70;;;;;;5034259;28;20083;-68
2022/05/17 06:11:03;;;;;;;15.05;6.53;;;18.90;75.90;;;;;;5032426;28;20095;-68
2022/05/17 06:13:29;;;;;;;18.42;5.80;;;19.00;73.90;;;;;;5033348;28;20069;-68
2022/05/17 06:15:55;;;;;;;21.60;5.72;;;19.20;71.90;;;;;;5036624;28;20069;-68
2022/05/17 06:18:21;;;;;;;14.88;6.03;;;19.30;71.00;;;;;;5033483;28;20057;-69
2022/05/17 06:20:53;;;;;;;15.57;5.75;;;19.40;70.20;;;;;;5030650;28;20063;-68
2022/05/17 06:23:20;;;;;;;16.58;5.45;;;19.50;69.70;;;;;;5041800;28;20504;-68
2022/05/17 06:25:46;;;;;;;15.90;5.93;;;19.60;69.10;;;;;;5045407;28;20032;-69
2022/05/17 06:28:13;;;;;;;19.42;5.50;;;19.80;69.20;;;;;;5038184;28;20388;-69
2022/05/17 06:30:41;;;;;;;12.32;5.10;;;20.00;67.80;;;;;;5034348;28;20571;-69
2022/05/17 06:33:08;;;;;;;15.98;5.88;;;20.30;66.20;;;;;;5033617;28;20496;-69
2022/05/17 06:35:36;;;;;;;14.40;4.80;;;21.00;64.20;;;;;;5042642;28;20044;-69
2022/05/17 06:38:02;;;;;;;13.90;5.00;;;21.80;60.60;;;;;;5032318;28;20022;-69
2022/05/17 06:40:28;;;;;;;12.77;4.82;;;22.60;57.10;;;;;;5033520;28;20030;-69
2022/05/17 06:42:54;;;;;;;12.75;4.45;;;23.50;52.90;;;;;;5045494;28;20520;-69
2022/05/17 06:45:20;;;;;;;14.93;4.63;;;24.30;49.00;;;;;;5040820;28;20113;-69
2022/05/17 06:47:46;;;;;;;12.27;4.22;;;25.00;46.00;;;;;;5036147;28;20026;-69
2022/05/17 06:50:12;;;;;;;14.30;4.20;;;25.50;44.50;;;;;;5034197;28;20037;-68
2022/05/17 06:52:38;;;;;;;13.73;4.68;;;25.80;43.60;;;;;;5034239;28;20075;-69
2022/05/17 06:55:04;;;;;;;22.25;10.63;;;26.20;43.00;;;;;;5041206;28;20044;-69
2022/05/17 06:57:30;;;;;;;13.73;6.35;;;26.50;42.10;;;;;;5041316;28;20488;-69
2022/05/17 06:59:56;;;;;;;13.15;3.97;;;26.90;41.10;;;;;;5038987;28;20028;-69
2022/05/17 07:02:21;;;;;;;16.48;3.65;;;27.20;39.90;;;;;;5039975;28;20563;-69
2022/05/17 07:04:48;;;;;;;11.02;3.50;;;27.60;39.40;;;;;;5033613;28;20029;-69
2022/05/17 07:07:14;;;;;;;9.10;3.00;;;28.00;38.50;;;;;;5036174;28;20028;-68
2022/05/17 07:09:39;;;;;;;10.05;2.83;;;28.30;37.00;;;;;;5041934;28;20036;-68
2022/05/17 07:14:50;;;;;;;8.77;2.03;;;28.60;35.10;;;;;;5041953;28;20068;-68
2022/05/17 07:17:20;;;;;;;7.47;1.73;;;28.30;34.90;;;;;;5030352;28;20033;-68
2022/05/17 07:19:47;;;;;;;6.65;1.95;;;27.80;35.50;;;;;;5034471;28;20385;-68
2022/05/17 07:22:13;;;;;;;7.78;2.03;;;27.50;37.00;;;;;;5035403;28;20165;-68
2022/05/17 07:24:41;;;;;;;7.70;1.88;;;27.10;38.20;;;;;;5035259;28;20026;-69
2022/05/17 07:27:08;;;;;;;7.45;2.00;;;26.60;40.00;;;;;;5043454;28;20037;-68
2022/05/17 07:29:35;;;;;;;6.80;1.92;;;26.20;40.40;;;;;;5035235;28;20029;-69
2022/05/17 07:32:01;;;;;;;6.97;1.90;;;25.80;42.00;;;;;;5038288;28;20025;-68
2022/05/17 07:34:27;;;;;;;10.45;1.83;;;25.70;42.10;;;;;;5043946;28;20037;-69
2022/05/17 07:36:53;;;;;;;8.38;1.90;;;25.70;42.20;;;;;;5043844;28;20230;-69
2022/05/17 07:39:19;;;;;;;7.72;1.90;;;25.60;43.20;;;;;;5038662;28;20021;-69
2022/05/17 07:41:45;;;;;;;6.20;1.80;;;25.70;43.50;;;;;;5038234;28;20546;-69
2022/05/17 07:44:11;;;;;;;12.98;2.10;;;25.80;42.20;;;;;;5038784;28;20138;-68
2022/05/17 07:46:38;;;;;;;7.60;2.10;;;25.80;42.40;;;;;;5043005;28;20526;-68
2022/05/17 07:49:04;;;;;;;8.05;1.92;;;25.80;41.40;;;;;;5040410;28;20450;-68
2022/05/17 07:51:30;;;;;;;7.53;2.00;;;25.80;40.80;;;;;;5031420;28;20072;-68
2022/05/17 07:53:55;;;;;;;4.93;1.65;;;25.70;41.50;;;;;;5034528;28;20791;-68
2022/05/17 07:56:21;;;;;;;7.13;1.67;;;25.60;42.00;;;;;;5048315;28;20029;-68
2022/05/17 07:58:47;;;;;;;5.95;1.73;;;25.70;41.80;;;;;;5040401;28;20032;-68
2022/05/17 08:01:15;;;;;;;5.30;1.60;;;25.70;41.80;;;;;;5037646;28;20053;-68
2022/05/17 08:03:41;;;;;;;6.57;1.60;;;25.80;41.90;;;;;;5036075;28;20488;-68
2022/05/17 08:06:06;;;;;;;5.80;1.83;;;25.90;42.40;;;;;;5038985;28;20112;-68
2022/05/17 08:08:32;;;;;;;7.43;1.60;;;26.00;41.30;;;;;;5034372;28;20021;-68
2022/05/17 08:10:58;;;;;;;8.05;1.63;;;26.10;41.40;;;;;;5039053;28;20520;-68
2022/05/17 08:13:25;;;;;;;8.57;1.27;;;26.20;41.40;;;;;;5033467;28;20018;-68
2022/05/17 08:15:51;;;;;;;4.72;1.30;;;26.30;39.80;;;;;;5039777;28;20037;-68
2022/05/17 08:18:18;;;;;;;4.60;1.20;;;26.20;39.40;;;;;;5041825;28;20090;-68
2022/05/17 08:20:45;;;;;;;4.57;1.20;;;26.20;39.10;;;;;;5036439;28;20025;-68
2022/05/17 08:23:12;;;;;;;4.60;1.27;;;26.10;39.20;;;;;;5044391;28;20461;-68
2022/05/17 08:28:22;;;;;;;3.60;0.90;;;26.20;39.40;;;;;;5038973;28;20031;-68
2022/05/17 08:30:48;;;;;;;6.47;1.30;;;26.20;38.90;;;;;;5036136;28;20160;-68
2022/05/17 08:33:16;;;;;;;4.78;1.20;;;26.20;39.10;;;;;;5045541;28;20049;-68
2022/05/17 08:35:54;;;;;;;4.15;1.13;;;26.30;38.80;;;;;;5044269;28;20041;-68
2022/05/17 08:38:44;;;;;;;4.80;1.10;;;26.40;39.00;;;;;;5039565;28;20029;-68
2022/05/17 08:41:13;;;;;;;3.88;0.85;;;26.40;39.00;;;;;;5042854;28;20045;-67
2022/05/17 08:43:53;;;;;;;5.57;1.00;;;26.40;39.20;;;;;;5042275;28;20025;-67
2022/05/17 08:46:40;;;;;;;6.95;0.98;;;26.40;39.60;;;;;;5037130;28;20033;-68
2022/05/17 08:49:23;;;;;;;3.25;0.95;;;26.60;39.30;;;;;;5040298;28;20032;-67
2022/05/17 08:52:09;;;;;;;5.82;1.10;;;26.80;39.10;;;;;;5038347;28;20029;-68
2022/05/17 08:54:42;;;;;;;3.28;0.90;;;26.90;38.90;;;;;;5041003;28;20025;-68
2022/05/17 08:57:47;;;;;;;3.13;0.82;;;27.00;38.30;;;;;;5039873;28;20443;-68
2022/05/17 09:00:21;;;;;;;4.53;1.00;;;27.10;37.90;;;;;;5039513;28;20484;-68
2022/05/17 09:03:10;;;;;;;4.40;1.30;;;27.00;37.90;;;;;;5040602;28;20112;-68
2022/05/17 09:05:54;;;;;;;5.65;1.10;;;27.20;37.40;;;;;;5045031;28;20028;-67
2022/05/17 09:08:30;;;;;;;4.18;0.82;;;27.30;37.20;;;;;;5035217;28;20086;-68
2022/05/17 09:11:08;;;;;;;2.45;0.70;;;27.60;35.30;;;;;;5031018;28;20036;-68
2022/05/17 09:14:09;;;;;;;3.22;0.65;;;27.70;35.70;;;;;;5043455;28;20025;-68
2022/05/17 09:16:40;;;;;;;1.65;0.60;;;27.80;35.10;;;;;;5041936;28;20048;-67
2022/05/17 09:19:05;;;;;;;2.83;0.80;;;27.90;34.60;;;;;;5038808;28;20112;-68
2022/05/17 09:21:36;;;;;;;2.65;0.70;;;28.20;34.40;;;;;;5041269;28;20603;-68
2022/05/17 09:24:08;;;;;;;3.15;0.80;;;28.50;33.90;;;;;;5044185;28;20523;-67
2022/05/17 09:26:34;;;;;;;4.47;0.88;;;28.60;33.30;;;;;;5045226;28;20056;-68
2022/05/17 09:29:11;;;;;;;5.18;0.90;;;28.70;33.40;;;;;;5034672;28;20040;-68
2022/05/17 09:31:48;;;;;;;5.32;0.80;;;28.90;33.30;;;;;;5042479;28;20025;-68
2022/05/17 09:34:28;;;;;;;7.00;0.82;;;29.10;32.10;;;;;;5036655;28;20021;-68
2022/05/17 09:36:55;;;;;;;2.80;0.80;;;29.20;31.90;;;;;;5031384;28;20045;-67
2022/05/17 09:39:24;;;;;;;3.40;0.82;;;29.40;32.10;;;;;;5037502;28;20095;-68
2022/05/17 09:41:50;;;;;;;4.85;1.02;;;29.70;31.40;;;;;;5035133;28;20130;-68
2022/05/17 09:44:23;;;;;;;4.18;0.90;;;29.90;31.10;;;;;;5042107;28;20507;-68
2022/05/17 09:46:50;;;;;;;3.70;0.70;;;29.90;31.80;;;;;;5040458;28;20055;-68
2022/05/17 09:52:44;;;;;;;6.25;0.98;;;30.00;30.30;;;;;;5037171;28;20032;-68
2022/05/17 09:55:25;;;;;;;2.47;0.90;;;30.10;30.30;;;;;;5038828;28;20028;-68
2022/05/17 09:57:56;;;;;;;2.63;0.82;;;30.00;30.00;;;;;;5039985;28;20104;-68
2022/05/17 10:00:43;;;;;;;4.88;1.02;;;30.00;30.10;;;;;;5040588;28;20028;-68
2022/05/17 10:03:15;;;;;;;5.53;0.90;;;30.20;30.30;;;;;;5036631;28;20031;-68
2022/05/17 10:05:44;;;;;;;2.88;1.00;;;30.60;29.90;;;;;;5035733;28;20029;-69
2022/05/17 10:08:13;;;;;;;8.53;1.00;;;30.80;29.60;;;;;;5032869;28;20115;-68
2022/05/17 10:10:47;;;;;;;8.38;1.02;;;31.00;29.50;;;;;;5032345;28;20280;-68
2022/05/17 10:13:36;;;;;;;4.90;1.00;;;31.20;29.60;;;;;;5033879;28;20416;-68
2022/05/17 10:16:09;;;;;;;5.93;1.00;;;31.50;28.20;;;;;;5031680;28;20037;-68
2022/05/17 10:19:00;;;;;;;5.15;1.23;;;31.70;28.60;;;;;;5032597;28;20159;-68
2022/05/17 10:21:40;;;;;;;4.55;1.02;;;31.70;27.70;;;;;;5014403;28;20119;-68
2022/05/17 10:24:11;;;;;;;5.18;1.20;;;31.70;27.80;;;;;;5011606;28;20033;-68
2022/05/17 10:26:43;;;;;;;4.07;1.02;;;31.80;28.00;;;;;;5016638;28;20085;-68
2022/05/17 10:29:21;;;;;;;3.67;1.10;;;32.10;28.00;;;;;;5012319;28;20109;-68
2022/05/17 10:31:59;;;;;;;4.78;1.05;;;31.80;28.00;;;;;;5015943;28;20046;-68
2022/05/17 10:34:34;;;;;;;6.70;1.20;;;31.30;28.50;;;;;;5024976;28;20053;-68
2022/05/17 10:37:09;;;;;;;4.50;1.30;;;31.60;28.80;;;;;;5020030;28;20041;-68
2022/05/17 10:39:41;;;;;;;4.00;1.10;;;31.90;28.70;;;;;;5009215;28;20644;-68
2022/05/17 10:42:07;;;;;;;5.63;1.30;;;32.30;28.30;;;;;;5009870;28;20543;-67
2022/05/17 10:44:42;;;;;;;4.97;1.30;;;32.70;27.70;;;;;;5023563;28;20033;-68
2022/05/17 10:47:28;;;;;;;9.57;1.35;;;33.00;27.00;;;;;;5012227;28;20030;-68
2022/05/17 10:50:08;;;;;;;5.43;1.40;;;33.50;27.10;;;;;;5013105;28;20056;-68
2022/05/17 10:53:06;;;;;;;8.87;1.33;;;33.30;27.60;;;;;;5021782;28;20045;-68
2022/05/17 10:56:03;;;;;;;15.85;2.08;;;32.30;28.40;;;;;;5017604;28;20304;-68
2022/05/17 10:59:02;;;;;;;6.93;1.50;;;31.60;29.10;;;;;;5027245;28;20045;-67
2022/05/17 11:01:53;;;;;;;9.30;1.63;;;31.10;29.80;;;;;;5032665;28;20037;-68
2022/05/17 11:04:57;;;;;;;8.57;1.45;;;31.20;30.00;;;;;;5037065;28;20495;-67
2022/05/17 11:07:46;;;;;;;8.85;1.50;;;31.00;30.20;;;;;;5035376;28;20075;-68
2022/05/17 11:10:30;;;;;;;6.43;1.67;;;32.30;28.30;;;;;;5035394;28;20032;-68
2022/05/17 11:13:05;;;;;;;7.28;1.20;;;33.50;26.30;;;;;;5042386;28;20558;-68
2022/05/17 11:15:35;;;;;;;5.22;1.40;;;34.20;25.80;;;;;;5041888;28;20061;-67
2022/05/17 11:18:26;;;;;;;9.32;1.77;;;33.50;27.20;;;;;;5042466;28;20060;-67
2022/05/17 11:21:04;;;;;;;5.47;1.35;;;32.80;27.40;;;;;;5043021;28;20526;-67
2022/05/17 11:23:54;;;;;;;4.95;1.30;;;33.10;27.30;;;;;;5045267;28;20025;-67
2022/05/17 11:26:44;;;;;;;;;;;33.70;26.50;;;;;;5045173;28;20037;-67
2022/05/17 11:29:18;;;;;;;;;;;33.20;27.10;;;;;;5050040;28;19996;-67
2022/05/17 11:32:00;;;;;;;6.20;1.50;;;32.80;27.90;;;;;;5054681;28;19919;-67
2022/05/17 11:34:33;;;;;;;5.43;1.60;;;32.80;27.40;;;;;;5043346;28;20033;-67
2022/05/17 11:37:05;;;;;;;7.80;1.25;;;32.00;28.60;;;;;;5040220;28;20045;-67
2022/05/17 11:39:31;;;;;;;5.43;1.30;;;31.00;29.50;;;;;;5042699;28;20132;-67
2022/05/17 11:43:40;;;;;;;6.47;1.20;;;30.30;30.90;;;;;;5043074;28;20462;-67
2022/05/17 11:45:44;;;;;;;4.95;1.30;;;29.70;32.10;;;;;;5035402;28;20422;-67
2022/05/17 11:48:22;;;;;;;8.55;1.40;;;29.00;33.20;;;;;;5037553;28;20052;-67
2022/05/17 11:51:00;;;;;;;12.63;2.08;;;28.70;33.90;;;;;;5044640;28;20116;-67
2022/05/17 11:53:26;;;;;;;3.88;1.27;;;28.60;33.90;;;;;;5039112;28;20424;-67
2022/05/17 11:56:19;;;;;;;4.45;1.38;;;28.60;33.40;;;;;;5052341;28;20040;-67
2022/05/17 11:58:48;;;;;;;4.63;1.40;;;28.80;33.80;;;;;;5041406;28;20055;-67
2022/05/17 12:01:37;;;;;;;5.50;1.30;;;30.90;30.70;;;;;;5046225;28;20400;-67
2022/05/17 12:04:07;;;;;;;5.45;1.40;;;34.20;26.70;;;;;;5043252;28;20095;-67
2022/05/17 12:06:43;;;;;;;;;;;33.80;26.30;;;;;;5050572;28;20116;-67
2022/05/17 12:09:20;;;;;;;7.28;1.23;;;35.00;24.70;;;;;;5042091;28;19925;-67
2022/05/17 12:11:58;;;;;;;5.93;1.60;;;34.70;24.60;;;;;;5046725;28;20033;-67
2022/05/17 12:14:35;;;;;;;4.68;1.40;;;34.10;25.90;;;;;;5039577;28;20025;-67
2022/05/17 12:17:15;;;;;;;6.53;1.65;;;33.90;26.80;;;;;;5041263;28;20494;-67
2022/05/17 12:19:40;;;;;;;;;;;36.00;24.00;;;;;;5034561;28;20496;-67
2022/05/17 12:22:55;;;;;;;9.35;1.70;;;37.40;22.30;;;;;;5035386;28;19916;-68
2022/05/17 12:25:34;;;;;;;4.18;1.15;;;38.70;21.70;;;;;;5024620;28;20558;-68
2022/05/17 12:28:00;;;;;;;3.97;1.20;;;39.70;20.50;;;;;;5025526;28;20059;-68
2022/05/17 12:30:53;;;;;;;11.15;1.92;;;40.20;19.70;;;;;;5017789;28;20045;-67
2022/05/17 12:33:23;;;;;;;5.57;1.30;;;40.20;20.00;;;;;;5026730;28;20040;-68
2022/05/17 12:35:50;;;;;;;5.35;1.20;;;40.90;19.50;;;;;;5019969;28;20047;-68
2022/05/17 12:44:07;;;;;;;5.70;1.33;;;40.50;19.30;;;;;;5024515;28;20308;-67
2022/05/17 12:46:36;;;;;;;6.05;1.10;;;40.80;19.60;;;;;;5023860;28;20107;-68
2022/05/17 12:49:26;;;;;;;4.35;1.13;;;40.90;19.20;;;;;;5037475;28;20076;-67
2022/05/17 12:51:56;;;;;;;6.57;1.17;;;40.50;19.20;;;;;;5021762;28;20038;-66
2022/05/17 12:54:25;;;;;;;4.07;1.17;;;40.50;19.60;;;;;;5023002;28;20033;-66
2022/05/17 12:56:51;;;;;;;8.07;1.40;;;40.70;19.50;;;;;;5033288;28;20511;-66
2022/05/17 12:59:27;;;;;;;7.90;1.40;;;40.60;19.40;;;;;;5038270;28;20553;-66
2022/05/17 13:01:56;;;;;;;6.43;1.30;;;39.50;21.10;;;;;;5037721;28;20059;-66
2022/05/17 13:04:37;;;;;;;;;;;38.20;21.60;;;;;;5041631;28;20033;-66
2022/05/17 13:07:13;;;;;;;5.53;1.40;;;36.80;22.80;;;;;;5035648;28;19990;-65
2022/05/17 13:09:54;;;;;;;7.10;1.80;;;35.10;24.80;;;;;;5039447;28;20051;-66
2022/05/17 13:12:23;;;;;;;8.02;1.65;;;33.90;26.40;;;;;;5039978;28;20106;-66
2022/05/17 13:14:50;;;;;;;9.33;1.50;;;33.40;27.50;;;;;;5047936;28;20048;-66
2022/05/17 13:17:23;;;;;;;8.90;1.50;;;34.00;26.60;;;;;;5033071;28;20064;-66
2022/05/17 13:19:59;;;;;;;7.55;1.77;;;35.20;25.20;;;;;;5043442;28;20032;-66